sensor_id;sensor_type;location;lat;lon;timestamp;pressure;altitude;pressure_sealevel;temperature;humidity
8653;BME280;4364;52.426;9.424;2023-07-09T00:01:14;101397.75;;;21.34;59.02
8653;BME280;4364;52.426;9.424;2023-07-09T00:03:41;101393.38;;;21.33;59.25
8653;BME280;4364;52.426;9.424;2023-07-09T00:06:08;101400.53;;;21.34;59.49
8653;BME280;4364;52.426;9.424;2023-07-09T00:08:35;101403.63;;;21.33;58.98
8653;BME280;4364;52.426;9.424;2023-07-09T00:11:03;101402.81;;;21.32;59.58
8653;BME280;4364;52.426;9.424;2023-07-09T00:13:29;101417.50;;;21.24;60.87
8653;BME280;4364;52.426;9.424;2023-07-09T00:16:01;101414.09;;;21.18;60.87
8653;BME280;4364;52.426;9.424;2023-07-09T00:18:29;101404.72;;;21.10;60.48
8653;BME280;4364;52.426;9.424;2023-07-09T00:20:56;101410.13;;;20.98;61.05
8653;BME280;4364;52.426;9.424;2023-07-09T00:23:22;101413.03;;;21.02;60.82
8653;BME280;4364;52.426;9.424;2023-07-09T00:25:49;101414.78;;;21.06;60.58
8653;BME280;4364;52.426;9.424;2023-07-09T00:28:16;101405.38;;;21.07;60.59
8653;BME280;4364;52.426;9.424;2023-07-09T00:30:45;101401.34;;;21.05;60.08
8653;BME280;4364;52.426;9.424;2023-07-09T00:33:13;101401.34;;;21.05;59.71
8653;BME280;4364;52.426;9.424;2023-07-09T00:35:47;101406.88;;;20.96;59.72
8653;BME280;4364;52.426;9.424;2023-07-09T00:38:18;101404.94;;;20.88;59.72
8653;BME280;4364;52.426;9.424;2023-07-09T00:43:33;101411.31;;;20.88;58.85
8653;BME280;4364;52.426;9.424;2023-07-09T00:48:40;101408.38;;;20.85;59.15
8653;BME280;4364;52.426;9.424;2023-07-09T00:51:16;101403.00;;;20.80;59.18
8653;BME280;4364;52.426;9.424;2023-07-09T00:53:49;101401.56;;;20.82;59.06
8653;BME280;4364;52.426;9.424;2023-07-09T00:56:26;101404.16;;;20.79;58.93
8653;BME280;4364;52.426;9.424;2023-07-09T00:58:55;101399.78;;;20.78;59.33
8653;BME280;4364;52.426;9.424;2023-07-09T01:01:21;101399.31;;;20.76;58.95
8653;BME280;4364;52.426;9.424;2023-07-09T01:03:54;101403.38;;;20.69;59.57
8653;BME280;4364;52.426;9.424;2023-07-09T01:06:27;101405.50;;;20.64;59.55
8653;BME280;4364;52.426;9.424;2023-07-09T01:08:59;101404.50;;;20.60;60.02
8653;BME280;4364;52.426;9.424;2023-07-09T01:11:32;101394.44;;;20.55;59.79
8653;BME280;4364;52.426;9.424;2023-07-09T01:14:03;101402.75;;;20.64;59.85
8653;BME280;4364;52.426;9.424;2023-07-09T01:16:36;101401.25;;;20.58;59.22
8653;BME280;4364;52.426;9.424;2023-07-09T01:19:04;101405.00;;;20.53;59.86
8653;BME280;4364;52.426;9.424;2023-07-09T01:21:32;101398.69;;;20.44;60.50
8653;BME280;4364;52.426;9.424;2023-07-09T01:24:11;101413.31;;;20.35;61.84
8653;BME280;4364;52.426;9.424;2023-07-09T01:26:39;101404.56;;;20.25;62.90
8653;BME280;4364;52.426;9.424;2023-07-09T01:29:07;101396.91;;;20.13;63.19
8653;BME280;4364;52.426;9.424;2023-07-09T01:31:33;101399.00;;;20.16;63.10
8653;BME280;4364;52.426;9.424;2023-07-09T01:34:02;101395.78;;;20.05;63.44
8653;BME280;4364;52.426;9.424;2023-07-09T01:36:29;101394.97;;;20.22;62.41
8653;BME280;4364;52.426;9.424;2023-07-09T01:38:56;101394.81;;;20.10;62.17
8653;BME280;4364;52.426;9.424;2023-07-09T01:41:22;101394.31;;;20.08;62.41
8653;BME280;4364;52.426;9.424;2023-07-09T01:43:50;101396.59;;;20.06;62.29
8653;BME280;4364;52.426;9.424;2023-07-09T01:46:17;101399.19;;;20.11;61.90
8653;BME280;4364;52.426;9.424;2023-07-09T01:48:43;101388.63;;;20.04;61.75
8653;BME280;4364;52.426;9.424;2023-07-09T01:51:14;101392.53;;;20.03;62.54
8653;BME280;4364;52.426;9.424;2023-07-09T01:53:43;101397.22;;;20.03;62.68
8653;BME280;4364;52.426;9.424;2023-07-09T01:56:10;101397.06;;;19.99;63.10
8653;BME280;4364;52.426;9.424;2023-07-09T01:58:37;101392.50;;;19.94;63.04
8653;BME280;4364;52.426;9.424;2023-07-09T02:01:10;101389.78;;;20.03;62.73
8653;BME280;4364;52.426;9.424;2023-07-09T02:03:36;101393.66;;;20.02;62.42
8653;BME280;4364;52.426;9.424;2023-07-09T02:06:03;101390.75;;;19.98;62.74
8653;BME280;4364;52.426;9.424;2023-07-09T02:08:36;101392.19;;;19.87;63.04
8653;BME280;4364;52.426;9.424;2023-07-09T02:11:03;101389.59;;;19.91;62.38
8653;BME280;4364;52.426;9.424;2023-07-09T02:13:30;101387.47;;;19.88;62.35
8653;BME280;4364;52.426;9.424;2023-07-09T02:15:57;101387.16;;;19.80;63.13
8653;BME280;4364;52.426;9.424;2023-07-09T02:18:23;101384.19;;;19.68;63.26
8653;BME280;4364;52.426;9.424;2023-07-09T02:20:49;101393.44;;;19.63;63.80
8653;BME280;4364;52.426;9.424;2023-07-09T02:23:16;101394.72;;;19.66;63.10
8653;BME280;4364;52.426;9.424;2023-07-09T02:25:43;101395.53;;;19.58;63.25
8653;BME280;4364;52.426;9.424;2023-07-09T02:28:09;101398.94;;;19.55;63.75
8653;BME280;4364;52.426;9.424;2023-07-09T02:30:36;101393.91;;;19.48;63.92
8653;BME280;4364;52.426;9.424;2023-07-09T02:33:03;101399.34;;;19.39;64.77
8653;BME280;4364;52.426;9.424;2023-07-09T02:35:30;101392.16;;;19.21;65.96
8653;BME280;4364;52.426;9.424;2023-07-09T02:37:56;101391.84;;;19.22;66.29
8653;BME280;4364;52.426;9.424;2023-07-09T02:40:23;101392.88;;;18.95;67.08
8653;BME280;4364;52.426;9.424;2023-07-09T02:42:49;101384.16;;;19.02;66.65
8653;BME280;4364;52.426;9.424;2023-07-09T02:45:17;101390.53;;;19.11;66.35
8653;BME280;4364;52.426;9.424;2023-07-09T02:47:44;101387.25;;;19.09;66.30
8653;BME280;4364;52.426;9.424;2023-07-09T02:50:10;101386.75;;;18.98;67.19
8653;BME280;4364;52.426;9.424;2023-07-09T02:52:37;101386.91;;;19.02;66.65
8653;BME280;4364;52.426;9.424;2023-07-09T02:55:04;101386.44;;;19.09;66.53
8653;BME280;4364;52.426;9.424;2023-07-09T02:57:31;101388.09;;;19.10;66.66
8653;BME280;4364;52.426;9.424;2023-07-09T02:59:57;101393.59;;;19.10;66.42
8653;BME280;4364;52.426;9.424;2023-07-09T03:02:24;101391.78;;;19.05;66.10
8653;BME280;4364;52.426;9.424;2023-07-09T03:04:51;101398.44;;;19.04;66.35
8653;BME280;4364;52.426;9.424;2023-07-09T03:07:17;101391.94;;;19.00;66.58
8653;BME280;4364;52.426;9.424;2023-07-09T03:09:44;101386.91;;;19.02;65.95
8653;BME280;4364;52.426;9.424;2023-07-09T03:12:10;101387.41;;;19.04;66.02
8653;BME280;4364;52.426;9.424;2023-07-09T03:14:36;101386.28;;;19.05;66.21
8653;BME280;4364;52.426;9.424;2023-07-09T03:17:03;101385.47;;;19.04;66.08
8653;BME280;4364;52.426;9.424;2023-07-09T03:19:30;101384.47;;;19.00;66.20
8653;BME280;4364;52.426;9.424;2023-07-09T03:21:59;101402.97;;;19.00;66.71
8653;BME280;4364;52.426;9.424;2023-07-09T03:24:26;101400.88;;;19.05;67.26
8653;BME280;4364;52.426;9.424;2023-07-09T03:26:53;101409.28;;;19.00;67.13
8653;BME280;4364;52.426;9.424;2023-07-09T03:29:19;101407.78;;;18.94;67.26
8653;BME280;4364;52.426;9.424;2023-07-09T03:31:45;101401.72;;;18.83;68.07
8653;BME280;4364;52.426;9.424;2023-07-09T03:34:12;101413.00;;;18.73;68.38
8653;BME280;4364;52.426;9.424;2023-07-09T03:36:40;101411.56;;;18.53;69.74
8653;BME280;4364;52.426;9.424;2023-07-09T03:39:07;101411.69;;;18.48;70.24
8653;BME280;4364;52.426;9.424;2023-07-09T03:41:34;101409.06;;;18.43;70.32
8653;BME280;4364;52.426;9.424;2023-07-09T03:44:01;101411.53;;;18.44;70.47
8653;BME280;4364;52.426;9.424;2023-07-09T03:46:27;101412.13;;;18.41;70.28
8653;BME280;4364;52.426;9.424;2023-07-09T03:48:54;101406.19;;;18.48;69.82
8653;BME280;4364;52.426;9.424;2023-07-09T03:51:21;101410.88;;;18.47;70.74
8653;BME280;4364;52.426;9.424;2023-07-09T03:53:47;101412.31;;;18.45;71.15
8653;BME280;4364;52.426;9.424;2023-07-09T03:56:14;101415.88;;;18.45;71.35
8653;BME280;4364;52.426;9.424;2023-07-09T03:58:40;101412.69;;;18.52;70.66
8653;BME280;4364;52.426;9.424;2023-07-09T04:01:07;101412.28;;;18.67;70.15
8653;BME280;4364;52.426;9.424;2023-07-09T04:03:33;101412.75;;;18.83;69.60
8653;BME280;4364;52.426;9.424;2023-07-09T04:06:00;101414.25;;;18.90;69.00
8653;BME280;4364;52.426;9.424;2023-07-09T04:08:27;101405.34;;;18.93;68.34
8653;BME280;4364;52.426;9.424;2023-07-09T04:10:58;101416.09;;;19.03;67.41
8653;BME280;4364;52.426;9.424;2023-07-09T04:13:25;101414.47;;;19.02;67.28
8653;BME280;4364;52.426;9.424;2023-07-09T04:15:54;101407.06;;;19.11;66.85
8653;BME280;4364;52.426;9.424;2023-07-09T04:18:21;101408.84;;;19.16;66.64
8653;BME280;4364;52.426;9.424;2023-07-09T04:20:48;101402.88;;;19.22;66.18
8653;BME280;4364;52.426;9.424;2023-07-09T04:23:16;101408.09;;;19.33;65.95
8653;BME280;4364;52.426;9.424;2023-07-09T04:25:43;101403.28;;;19.38;65.42
8653;BME280;4364;52.426;9.424;2023-07-09T04:28:09;101409.44;;;19.44;65.46
8653;BME280;4364;52.426;9.424;2023-07-09T04:30:36;101400.69;;;19.51;64.49
8653;BME280;4364;52.426;9.424;2023-07-09T04:33:02;101407.69;;;19.57;64.57
8653;BME280;4364;52.426;9.424;2023-07-09T04:35:29;101407.56;;;19.71;62.99
8653;BME280;4364;52.426;9.424;2023-07-09T04:37:56;101402.69;;;19.68;63.86
8653;BME280;4364;52.426;9.424;2023-07-09T04:40:22;101411.47;;;19.70;64.01
8653;BME280;4364;52.426;9.424;2023-07-09T04:42:49;101414.91;;;19.75;63.97
8653;BME280;4364;52.426;9.424;2023-07-09T04:45:17;101412.94;;;19.76;62.78
8653;BME280;4364;52.426;9.424;2023-07-09T04:47:43;101419.06;;;19.73;63.71
8653;BME280;4364;52.426;9.424;2023-07-09T04:50:10;101410.72;;;19.87;63.19
8653;BME280;4364;52.426;9.424;2023-07-09T04:52:37;101412.16;;;19.84;63.09
8653;BME280;4364;52.426;9.424;2023-07-09T04:55:04;101416.53;;;19.85;63.90
8653;BME280;4364;52.426;9.424;2023-07-09T04:57:31;101417.84;;;19.88;63.38
8653;BME280;4364;52.426;9.424;2023-07-09T04:59:58;101419.63;;;19.92;62.48
8653;BME280;4364;52.426;9.424;2023-07-09T05:02:25;101415.28;;;20.00;62.01
8653;BME280;4364;52.426;9.424;2023-07-09T05:04:51;101416.41;;;19.99;61.85
8653;BME280;4364;52.426;9.424;2023-07-09T05:07:18;101411.53;;;20.05;61.65
8653;BME280;4364;52.426;9.424;2023-07-09T05:09:44;101417.88;;;20.14;62.03
8653;BME280;4364;52.426;9.424;2023-07-09T05:12:11;101418.03;;;20.17;61.22
8653;BME280;4364;52.426;9.424;2023-07-09T05:14:37;101419.31;;;20.29;61.58
8653;BME280;4364;52.426;9.424;2023-07-09T05:17:04;101420.94;;;20.39;61.87
8653;BME280;4364;52.426;9.424;2023-07-09T05:19:31;101420.13;;;20.47;61.83
8653;BME280;4364;52.426;9.424;2023-07-09T05:21:58;101424.69;;;20.51;61.78
8653;BME280;4364;52.426;9.424;2023-07-09T05:24:25;101419.13;;;20.60;62.20
8653;BME280;4364;52.426;9.424;2023-07-09T05:26:54;101418.34;;;20.68;62.14
8653;BME280;4364;52.426;9.424;2023-07-09T05:29:21;101414.06;;;20.80;61.49
8653;BME280;4364;52.426;9.424;2023-07-09T05:31:47;101417.47;;;20.85;61.39
8653;BME280;4364;52.426;9.424;2023-07-09T05:34:14;101420.06;;;20.90;60.74
8653;BME280;4364;52.426;9.424;2023-07-09T05:36:41;101418.59;;;20.93;60.71
8653;BME280;4364;52.426;9.424;2023-07-09T05:39:07;101421.19;;;20.98;60.59
8653;BME280;4364;52.426;9.424;2023-07-09T05:41:34;101419.66;;;21.09;60.31
8653;BME280;4364;52.426;9.424;2023-07-09T05:44:01;101425.47;;;21.25;59.72
8653;BME280;4364;52.426;9.424;2023-07-09T05:46:27;101423.28;;;21.49;59.33
8653;BME280;4364;52.426;9.424;2023-07-09T05:48:54;101419.88;;;21.73;57.95
8653;BME280;4364;52.426;9.424;2023-07-09T05:51:20;101432.03;;;22.01;56.45
8653;BME280;4364;52.426;9.424;2023-07-09T05:53:47;101430.75;;;22.20;55.46
8653;BME280;4364;52.426;9.424;2023-07-09T05:56:14;101434.63;;;22.49;54.99
8653;BME280;4364;52.426;9.424;2023-07-09T05:58:40;101434.13;;;22.80;52.98
8653;BME280;4364;52.426;9.424;2023-07-09T06:01:07;101433.91;;;22.85;52.40
8653;BME280;4364;52.426;9.424;2023-07-09T06:03:33;101425.94;;;23.17;52.12
8653;BME280;4364;52.426;9.424;2023-07-09T06:06:00;101430.31;;;23.43;50.50
8653;BME280;4364;52.426;9.424;2023-07-09T06:08:27;101423.72;;;23.35;50.60
8653;BME280;4364;52.426;9.424;2023-07-09T06:10:56;101423.59;;;23.56;50.17
8653;BME280;4364;52.426;9.424;2023-07-09T06:13:24;101424.97;;;23.75;49.83
8653;BME280;4364;52.426;9.424;2023-07-09T06:15:51;101428.69;;;23.91;49.31
8653;BME280;4364;52.426;9.424;2023-07-09T06:18:19;101423.34;;;24.27;48.56
8653;BME280;4364;52.426;9.424;2023-07-09T06:20:52;101428.94;;;24.55;48.28
8653;BME280;4364;52.426;9.424;2023-07-09T06:23:19;101427.63;;;24.81;47.46
8653;BME280;4364;52.426;9.424;2023-07-09T06:25:45;101425.63;;;25.09;46.78
8653;BME280;4364;52.426;9.424;2023-07-09T06:28:18;101429.03;;;25.35;46.26
8653;BME280;4364;52.426;9.424;2023-07-09T06:30:46;101429.56;;;25.40;44.77
8653;BME280;4364;52.426;9.424;2023-07-09T06:33:14;101433.63;;;25.27;44.96
8653;BME280;4364;52.426;9.424;2023-07-09T06:35:52;101435.38;;;25.19;45.20
8653;BME280;4364;52.426;9.424;2023-07-09T06:38:19;101431.91;;;25.38;44.85
8653;BME280;4364;52.426;9.424;2023-07-09T06:40:46;101434.59;;;25.03;45.33
8653;BME280;4364;52.426;9.424;2023-07-09T06:43:13;101436.13;;;25.16;45.43
8653;BME280;4364;52.426;9.424;2023-07-09T06:45:48;101433.25;;;25.28;45.20
8653;BME280;4364;52.426;9.424;2023-07-09T06:48:15;101438.72;;;25.41;44.54
8653;BME280;4364;52.426;9.424;2023-07-09T06:50:42;101429.78;;;25.67;44.28
8653;BME280;4364;52.426;9.424;2023-07-09T06:53:08;101434.88;;;25.81;43.79
8653;BME280;4364;52.426;9.424;2023-07-09T06:55:35;101435.59;;;26.13;43.31
8653;BME280;4364;52.426;9.424;2023-07-09T06:58:02;101441.34;;;26.40;42.61
8653;BME280;4364;52.426;9.424;2023-07-09T07:00:29;101447.78;;;26.64;42.33
8653;BME280;4364;52.426;9.424;2023-07-09T07:02:55;101442.84;;;26.76;42.27
8653;BME280;4364;52.426;9.424;2023-07-09T07:05:22;101439.56;;;26.94;41.30
8653;BME280;4364;52.426;9.424;2023-07-09T07:07:48;101446.16;;;27.05;41.29
8653;BME280;4364;52.426;9.424;2023-07-09T07:10:15;101453.50;;;27.37;40.57
8653;BME280;4364;52.426;9.424;2023-07-09T07:12:44;101440.81;;;27.69;39.81
8653;BME280;4364;52.426;9.424;2023-07-09T07:15:12;101445.59;;;27.96;39.25
8653;BME280;4364;52.426;9.424;2023-07-09T07:17:39;101453.94;;;28.22;39.46
8653;BME280;4364;52.426;9.424;2023-07-09T07:20:08;101450.19;;;28.45;39.17
8653;BME280;4364;52.426;9.424;2023-07-09T07:22:35;101451.50;;;28.89;38.57
8653;BME280;4364;52.426;9.424;2023-07-09T07:25:03;101443.94;;;28.93;37.91
8653;BME280;4364;52.426;9.424;2023-07-09T07:27:30;101445.88;;;29.30;37.66
8653;BME280;4364;52.426;9.424;2023-07-09T07:29:56;101440.41;;;29.48;37.23
8653;BME280;4364;52.426;9.424;2023-07-09T07:32:24;101442.88;;;29.60;36.77
8653;BME280;4364;52.426;9.424;2023-07-09T07:34:50;101436.94;;;29.69;36.09
8653;BME280;4364;52.426;9.424;2023-07-09T07:37:20;101442.88;;;29.56;36.17
8653;BME280;4364;52.426;9.424;2023-07-09T07:39:47;101445.41;;;29.76;36.12
8653;BME280;4364;52.426;9.424;2023-07-09T07:42:14;101433.91;;;29.36;36.62
8653;BME280;4364;52.426;9.424;2023-07-09T07:44:41;101436.75;;;30.03;35.84
8653;BME280;4364;52.426;9.424;2023-07-09T07:47:07;101442.94;;;30.37;35.03
8653;BME280;4364;52.426;9.424;2023-07-09T07:49:34;101442.56;;;30.60;34.96
8653;BME280;4364;52.426;9.424;2023-07-09T07:52:01;101444.59;;;30.67;34.30
8653;BME280;4364;52.426;9.424;2023-07-09T07:54:30;101437.38;;;30.62;34.33
8653;BME280;4364;52.426;9.424;2023-07-09T07:56:58;101441.38;;;30.61;34.43
8653;BME280;4364;52.426;9.424;2023-07-09T07:59:25;101441.81;;;30.74;34.48
8653;BME280;4364;52.426;9.424;2023-07-09T08:01:51;101445.47;;;30.96;34.00
8653;BME280;4364;52.426;9.424;2023-07-09T08:04:18;101434.19;;;30.82;34.32
8653;BME280;4364;52.426;9.424;2023-07-09T08:06:44;101430.19;;;30.90;34.05
8653;BME280;4364;52.426;9.424;2023-07-09T08:09:11;101431.00;;;30.73;34.67
8653;BME280;4364;52.426;9.424;2023-07-09T08:11:37;101429.78;;;30.88;33.98
8653;BME280;4364;52.426;9.424;2023-07-09T08:14:04;101430.19;;;30.83;34.22
8653;BME280;4364;52.426;9.424;2023-07-09T08:16:31;101431.81;;;31.06;33.57
8653;BME280;4364;52.426;9.424;2023-07-09T08:18:57;101437.47;;;31.31;33.43
8653;BME280;4364;52.426;9.424;2023-07-09T08:21:24;101433.41;;;31.61;33.41
8653;BME280;4364;52.426;9.424;2023-07-09T08:23:51;101436.22;;;31.57;33.02
8653;BME280;4364;52.426;9.424;2023-07-09T08:26:17;101431.44;;;31.25;33.70
8653;BME280;4364;52.426;9.424;2023-07-09T08:28:43;101435.84;;;31.33;34.45
8653;BME280;4364;52.426;9.424;2023-07-09T08:31:10;101429.00;;;31.63;33.55
8653;BME280;4364;52.426;9.424;2023-07-09T08:33:37;101427.31;;;31.87;33.54
8653;BME280;4364;52.426;9.424;2023-07-09T08:36:03;101426.56;;;31.76;33.79
8653;BME280;4364;52.426;9.424;2023-07-09T08:38:30;101432.59;;;31.46;34.67
8653;BME280;4364;52.426;9.424;2023-07-09T08:41:39;101432.63;;;31.42;33.58
8653;BME280;4364;52.426;9.424;2023-07-09T08:44:09;101430.53;;;31.86;33.54
8653;BME280;4364;52.426;9.424;2023-07-09T08:49:23;101430.50;;;31.97;33.21
8653;BME280;4364;52.426;9.424;2023-07-09T08:51:54;101422.13;;;31.75;33.24
8653;BME280;4364;52.426;9.424;2023-07-09T08:54:31;101430.13;;;31.84;32.74
8653;BME280;4364;52.426;9.424;2023-07-09T08:57:02;101425.75;;;31.83;33.38
8653;BME280;4364;52.426;9.424;2023-07-09T08:59:34;101418.59;;;31.35;34.21
8653;BME280;4364;52.426;9.424;2023-07-09T09:02:03;101421.41;;;31.53;34.67
8653;BME280;4364;52.426;9.424;2023-07-09T09:04:36;101426.19;;;31.45;33.67
8653;BME280;4364;52.426;9.424;2023-07-09T09:07:16;101418.19;;;31.36;33.84
8653;BME280;4364;52.426;9.424;2023-07-09T09:10:05;101427.81;;;31.57;33.99
8653;BME280;4364;52.426;9.424;2023-07-09T09:12:36;101418.19;;;31.26;35.18
8653;BME280;4364;52.426;9.424;2023-07-09T09:17:38;101415.69;;;31.82;34.61
8653;BME280;4364;52.426;9.424;2023-07-09T09:20:17;101413.19;;;32.05;33.30
8653;BME280;4364;52.426;9.424;2023-07-09T09:23:11;101417.28;;;31.90;32.88
8653;BME280;4364;52.426;9.424;2023-07-09T09:25:42;101426.13;;;31.88;32.79
8653;BME280;4364;52.426;9.424;2023-07-09T09:28:13;101414.81;;;31.99;33.20
8653;BME280;4364;52.426;9.424;2023-07-09T09:30:40;101410.78;;;32.11;32.53
8653;BME280;4364;52.426;9.424;2023-07-09T09:33:08;101412.69;;;32.32;32.19
8653;BME280;4364;52.426;9.424;2023-07-09T09:35:41;101416.97;;;32.55;31.63
8653;BME280;4364;52.426;9.424;2023-07-09T09:38:12;101414.63;;;33.02;31.20
8653;BME280;4364;52.426;9.424;2023-07-09T09:40:39;101419.91;;;33.00;32.63
8653;BME280;4364;52.426;9.424;2023-07-09T09:43:13;101423.38;;;33.15;31.21
8653;BME280;4364;52.426;9.424;2023-07-09T09:45:41;101417.81;;;33.08;32.21
8653;BME280;4364;52.426;9.424;2023-07-09T09:48:16;101424.91;;;33.27;31.60
8653;BME280;4364;52.426;9.424;2023-07-09T09:50:45;101415.13;;;32.93;32.41
8653;BME280;4364;52.426;9.424;2023-07-09T09:53:21;101419.75;;;33.18;32.85
8653;BME280;4364;52.426;9.424;2023-07-09T09:55:49;101411.88;;;33.44;32.02
8653;BME280;4364;52.426;9.424;2023-07-09T09:58:17;101416.75;;;32.91;32.44
8653;BME280;4364;52.426;9.424;2023-07-09T10:00:52;101415.31;;;32.61;32.38
8653;BME280;4364;52.426;9.424;2023-07-09T10:03:19;101413.16;;;32.86;32.41
8653;BME280;4364;52.426;9.424;2023-07-09T10:05:51;101415.66;;;33.26;32.43
8653;BME280;4364;52.426;9.424;2023-07-09T10:11:16;101420.56;;;33.18;31.06
8653;BME280;4364;52.426;9.424;2023-07-09T10:13:45;101422.91;;;33.65;31.25
8653;BME280;4364;52.426;9.424;2023-07-09T10:16:24;101425.38;;;33.97;30.61
8653;BME280;4364;52.426;9.424;2023-07-09T10:19:09;101423.00;;;33.16;31.32
8653;BME280;4364;52.426;9.424;2023-07-09T10:21:47;101419.50;;;33.47;31.81
8653;BME280;4364;52.426;9.424;2023-07-09T10:24:34;101427.25;;;33.77;31.04
8653;BME280;4364;52.426;9.424;2023-07-09T10:29:48;101424.00;;;34.09;30.28
8653;BME280;4364;52.426;9.424;2023-07-09T10:32:42;101426.47;;;34.38;29.69
8653;BME280;4364;52.426;9.424;2023-07-09T10:38:03;101422.19;;;34.26;31.64
8653;BME280;4364;52.426;9.424;2023-07-09T10:40:40;101416.41;;;34.64;29.47
8653;BME280;4364;52.426;9.424;2023-07-09T10:43:36;101420.63;;;34.52;28.32
8653;BME280;4364;52.426;9.424;2023-07-09T10:46:09;101411.94;;;34.40;29.36
8653;BME280;4364;52.426;9.424;2023-07-09T10:48:40;101409.31;;;33.56;30.64
8653;BME280;4364;52.426;9.424;2023-07-09T10:51:22;101410.72;;;33.37;30.44
8653;BME280;4364;52.426;9.424;2023-07-09T10:53:58;101410.50;;;33.59;31.42
8653;BME280;4364;52.426;9.424;2023-07-09T10:56:31;101411.81;;;33.47;31.82
8653;BME280;4364;52.426;9.424;2023-07-09T10:59:03;101418.94;;;33.97;31.63
8653;BME280;4364;52.426;9.424;2023-07-09T11:01:41;101412.88;;;33.99;32.66
8653;BME280;4364;52.426;9.424;2023-07-09T11:04:15;101414.66;;;34.16;33.15
8653;BME280;4364;52.426;9.424;2023-07-09T11:06:48;101407.56;;;34.04;32.16
8653;BME280;4364;52.426;9.424;2023-07-09T11:09:34;101408.13;;;33.54;33.24
8653;BME280;4364;52.426;9.424;2023-07-09T11:17:23;101410.53;;;33.93;34.55
8653;BME280;4364;52.426;9.424;2023-07-09T11:19:59;101409.13;;;34.09;34.28
8653;BME280;4364;52.426;9.424;2023-07-09T11:22:39;101403.91;;;34.07;32.45
8653;BME280;4364;52.426;9.424;2023-07-09T11:25:11;101406.53;;;33.91;33.28
8653;BME280;4364;52.426;9.424;2023-07-09T11:27:49;101404.22;;;34.13;34.55
8653;BME280;4364;52.426;9.424;2023-07-09T11:30:22;101395.38;;;34.11;32.79
8653;BME280;4364;52.426;9.424;2023-07-09T11:32:55;101393.81;;;34.10;33.27
8653;BME280;4364;52.426;9.424;2023-07-09T11:35:49;101385.09;;;34.28;32.22
8653;BME280;4364;52.426;9.424;2023-07-09T11:38:19;101389.53;;;33.94;32.38
8653;BME280;4364;52.426;9.424;2023-07-09T11:40:50;101387.25;;;33.86;31.96
8653;BME280;4364;52.426;9.424;2023-07-09T11:43:35;101383.88;;;34.29;32.02
8653;BME280;4364;52.426;9.424;2023-07-09T11:46:24;101381.38;;;34.34;33.09
8653;BME280;4364;52.426;9.424;2023-07-09T11:48:54;101374.88;;;34.38;33.30
8653;BME280;4364;52.426;9.424;2023-07-09T11:51:34;101376.94;;;34.03;33.18
8653;BME280;4364;52.426;9.424;2023-07-09T11:54:03;101380.13;;;34.05;33.17
8653;BME280;4364;52.426;9.424;2023-07-09T11:56:30;101375.56;;;34.14;32.58
8653;BME280;4364;52.426;9.424;2023-07-09T11:58:58;101371.09;;;34.21;31.19
8653;BME280;4364;52.426;9.424;2023-07-09T12:01:36;101370.28;;;33.51;31.27
8653;BME280;4364;52.426;9.424;2023-07-09T12:04:06;101369.44;;;33.92;31.83
8653;BME280;4364;52.426;9.424;2023-07-09T12:06:33;101367.69;;;34.33;31.43
8653;BME280;4364;52.426;9.424;2023-07-09T12:09:00;101364.94;;;33.99;32.32
8653;BME280;4364;52.426;9.424;2023-07-09T12:11:31;101364.34;;;34.11;32.19
8653;BME280;4364;52.426;9.424;2023-07-09T12:14:24;101358.03;;;34.03;31.66
8653;BME280;4364;52.426;9.424;2023-07-09T12:16:52;101364.06;;;34.32;31.98
8653;BME280;4364;52.426;9.424;2023-07-09T12:19:21;101359.94;;;34.10;30.55
8653;BME280;4364;52.426;9.424;2023-07-09T12:21:50;101360.06;;;34.57;28.67
8653;BME280;4364;52.426;9.424;2023-07-09T12:24:27;101352.56;;;34.47;29.50
8653;BME280;4364;52.426;9.424;2023-07-09T12:27:15;101349.47;;;34.38;30.19
8653;BME280;4364;52.426;9.424;2023-07-09T12:29:42;101344.41;;;34.52;30.58
8653;BME280;4364;52.426;9.424;2023-07-09T12:32:12;101348.50;;;34.75;30.28
8653;BME280;4364;52.426;9.424;2023-07-09T12:34:39;101342.22;;;34.64;30.38
8653;BME280;4364;52.426;9.424;2023-07-09T12:37:12;101342.91;;;34.44;30.89
8653;BME280;4364;52.426;9.424;2023-07-09T12:39:39;101342.34;;;34.57;30.83
8653;BME280;4364;52.426;9.424;2023-07-09T12:42:17;101341.97;;;34.78;30.18
8653;BME280;4364;52.426;9.424;2023-07-09T12:44:45;101338.41;;;34.98;29.56
8653;BME280;4364;52.426;9.424;2023-07-09T12:47:14;101349.44;;;34.92;29.78
8653;BME280;4364;52.426;9.424;2023-07-09T12:49:43;101336.78;;;35.00;29.81
8653;BME280;4364;52.426;9.424;2023-07-09T12:52:19;101339.63;;;35.20;29.83
8653;BME280;4364;52.426;9.424;2023-07-09T12:54:56;101337.34;;;35.35;29.07
8653;BME280;4364;52.426;9.424;2023-07-09T12:57:23;101328.31;;;35.20;29.44
8653;BME280;4364;52.426;9.424;2023-07-09T12:59:51;101326.03;;;35.12;29.41
8653;BME280;4364;52.426;9.424;2023-07-09T13:02:19;101322.66;;;35.20;30.20
8653;BME280;4364;52.426;9.424;2023-07-09T13:04:48;101319.13;;;34.93;30.19
8653;BME280;4364;52.426;9.424;2023-07-09T13:09:54;101299.41;;;35.13;30.83
8653;BME280;4364;52.426;9.424;2023-07-09T13:12:29;101303.63;;;35.24;29.69
8653;BME280;4364;52.426;9.424;2023-07-09T13:14:57;101292.50;;;34.94;30.46
8653;BME280;4364;52.426;9.424;2023-07-09T13:17:30;101287.06;;;35.03;30.25
8653;BME280;4364;52.426;9.424;2023-07-09T13:19:57;101284.25;;;35.03;30.65
8653;BME280;4364;52.426;9.424;2023-07-09T13:22:28;101286.59;;;35.28;29.47
8653;BME280;4364;52.426;9.424;2023-07-09T13:24:54;101278.06;;;34.88;30.42
8653;BME280;4364;52.426;9.424;2023-07-09T13:27:21;101281.72;;;35.09;30.34
8653;BME280;4364;52.426;9.424;2023-07-09T13:29:47;101282.47;;;35.53;29.94
8653;BME280;4364;52.426;9.424;2023-07-09T13:32:15;101283.56;;;35.39;28.46
8653;BME280;4364;52.426;9.424;2023-07-09T13:34:43;101276.63;;;35.23;28.79
8653;BME280;4364;52.426;9.424;2023-07-09T13:37:14;101261.28;;;35.21;29.72
8653;BME280;4364;52.426;9.424;2023-07-09T13:39:42;101264.72;;;35.32;29.51
8653;BME280;4364;52.426;9.424;2023-07-09T13:42:14;101257.47;;;35.31;29.19
8653;BME280;4364;52.426;9.424;2023-07-09T13:44:44;101255.78;;;35.14;29.24
8653;BME280;4364;52.426;9.424;2023-07-09T13:47:16;101252.13;;;34.93;29.64
8653;BME280;4364;52.426;9.424;2023-07-09T13:49:44;101256.72;;;34.87;29.33